createdAt,value
2017-10-10T01:37:10.297Z,12.69
2017-10-10T01:37:10.871Z,12.67
2017-10-10T01:37:11.474Z,12.64
2017-10-10T01:37:12.071Z,12.67
2017-10-10T01:37:12.671Z,12.66
2017-10-10T01:37:13.271Z,12.67
2017-10-10T01:37:13.871Z,12.67
2017-10-10T01:37:14.469Z,12.69
2017-10-10T01:38:07.951Z,12.67
2017-10-10T01:38:08.524Z,12.69
2017-10-10T01:38:09.123Z,12.64
2017-10-10T01:38:09.723Z,12.69
2017-10-10T01:38:10.325Z,12.64
2017-10-10T01:38:10.925Z,12.69
2017-10-10T01:38:11.523Z,12.63
2017-10-10T01:38:12.124Z,12.67
2017-10-10T01:39:06.633Z,12.64
2017-10-10T01:39:07.199Z,12.70
2017-10-10T01:39:07.800Z,12.67
2017-10-10T01:39:08.400Z,12.70
2017-10-10T01:39:08.999Z,12.69
2017-10-10T01:39:09.598Z,12.70
2017-10-10T01:39:10.198Z,12.66
2017-10-10T01:39:10.806Z,12.66
2017-10-10T01:40:16.975Z,12.67
2017-10-10T01:40:17.550Z,12.71
2017-10-10T01:40:18.152Z,12.64
2017-10-10T01:40:18.750Z,12.66
2017-10-10T01:40:19.350Z,12.69
2017-10-10T01:40:19.949Z,12.69
2017-10-10T01:40:20.553Z,12.67
2017-10-10T01:40:21.150Z,12.71
2017-10-10T01:41:14.629Z,12.66
2017-10-10T01:41:15.204Z,12.64
2017-10-10T01:41:15.803Z,12.69
2017-10-10T01:41:16.403Z,12.67
2017-10-10T01:41:17.003Z,12.66
2017-10-10T01:41:17.634Z,12.71
2017-10-10T01:41:18.202Z,12.70
2017-10-10T01:41:18.802Z,12.70
2017-10-10T01:42:12.281Z,12.69
2017-10-10T01:42:12.855Z,12.74
2017-10-10T01:42:13.455Z,12.70
2017-10-10T01:42:14.055Z,12.70
2017-10-10T01:42:14.654Z,12.70
2017-10-10T01:42:15.254Z,12.64
2017-10-10T01:42:15.855Z,12.69
2017-10-10T01:42:16.454Z,12.70
2017-10-10T01:43:10.969Z,12.70
2017-10-10T01:43:11.530Z,12.69
2017-10-10T01:43:12.129Z,12.69
2017-10-10T01:43:12.729Z,12.67
2017-10-10T01:43:13.336Z,12.78
2017-10-10T01:43:13.932Z,12.70
2017-10-10T01:43:14.527Z,12.66
2017-10-10T01:43:15.129Z,12.67
2017-10-10T01:44:09.640Z,12.69
2017-10-10T01:44:10.206Z,12.74
2017-10-10T01:44:10.805Z,12.69
2017-10-10T01:44:11.406Z,12.70
2017-10-10T01:44:12.005Z,12.67
2017-10-10T01:44:12.606Z,12.79
2017-10-10T01:44:13.205Z,12.75
2017-10-10T01:44:13.805Z,12.69
2017-10-10T01:45:07.286Z,12.77
2017-10-10T01:45:07.858Z,12.75
2017-10-10T01:45:08.459Z,12.71
2017-10-10T01:45:09.058Z,12.75
2017-10-10T01:45:09.658Z,12.78
2017-10-10T01:45:10.257Z,12.74
2017-10-10T01:45:10.858Z,12.77
2017-10-10T01:45:11.457Z,12.77
2017-10-10T01:46:05.960Z,12.79
2017-10-10T01:46:06.534Z,12.77
2017-10-10T01:46:07.134Z,12.77
2017-10-10T01:46:07.737Z,12.82
2017-10-10T01:46:08.334Z,12.74
2017-10-10T01:46:08.934Z,12.84
2017-10-10T01:46:09.533Z,12.74
2017-10-10T01:46:10.134Z,12.82
2017-10-10T01:47:04.637Z,12.78
2017-10-10T01:47:05.209Z,12.74
2017-10-10T01:47:05.810Z,12.71
2017-10-10T01:47:06.409Z,12.71
2017-10-10T01:47:07.007Z,12.70
2017-10-10T01:47:07.608Z,12.74
2017-10-10T01:47:08.208Z,12.77
2017-10-10T01:47:08.813Z,12.71
2017-10-10T01:48:02.288Z,12.77
2017-10-10T01:48:02.863Z,12.77
2017-10-10T01:48:03.461Z,12.84
2017-10-10T01:48:04.062Z,12.71
2017-10-10T01:48:04.662Z,12.89
2017-10-10T01:48:05.261Z,12.88
2017-10-10T01:48:05.861Z,12.75
2017-10-10T01:48:06.462Z,12.79
2017-10-10T01:49:00.964Z,12.84
2017-10-10T01:49:01.538Z,12.85
2017-10-10T01:49:02.138Z,12.75
2017-10-10T01:49:02.737Z,12.89
2017-10-10T01:49:03.340Z,12.77
2017-10-10T01:49:03.937Z,12.84
2017-10-10T01:49:04.536Z,12.84
2017-10-10T01:49:05.137Z,12.81
2017-10-10T01:49:59.639Z,12.89
2017-10-10T01:50:00.214Z,12.82
2017-10-10T01:50:00.814Z,12.88
2017-10-10T01:50:01.413Z,12.84
2017-10-10T01:50:02.013Z,12.88
2017-10-10T01:50:02.616Z,12.92
2017-10-10T01:50:03.212Z,12.88
2017-10-10T01:50:03.813Z,12.88
2017-10-10T01:50:58.314Z,12.93
2017-10-10T01:50:58.888Z,12.85
2017-10-10T01:50:59.489Z,12.87
2017-10-10T01:51:00.089Z,12.87
2017-10-10T01:51:00.693Z,12.87
2017-10-10T01:51:01.287Z,12.82
2017-10-10T01:51:01.888Z,12.89
2017-10-10T01:51:02.490Z,12.81
2017-10-10T01:51:56.991Z,12.87
2017-10-10T01:51:57.565Z,12.92
2017-10-10T01:51:58.166Z,12.85
2017-10-10T01:51:58.764Z,12.99
2017-10-10T01:51:59.364Z,12.95
2017-10-10T01:51:59.965Z,12.93
2017-10-10T01:52:00.565Z,12.97
2017-10-10T01:52:01.164Z,12.85
2017-10-10T01:52:54.641Z,12.97
2017-10-10T01:52:55.217Z,12.99
2017-10-10T01:52:55.816Z,12.85
2017-10-10T01:52:56.417Z,12.99
2017-10-10T01:52:57.017Z,12.89
2017-10-10T01:52:57.617Z,12.96
2017-10-10T01:52:58.218Z,12.89
2017-10-10T01:52:58.817Z,12.97
2017-10-10T01:53:52.294Z,12.97
2017-10-10T01:53:52.868Z,12.99
2017-10-10T01:53:53.474Z,12.93
2017-10-10T01:53:54.069Z,12.93
2017-10-10T01:53:54.669Z,12.96
2017-10-10T01:53:55.270Z,12.96
2017-10-10T01:53:55.869Z,12.99
2017-10-10T01:53:56.470Z,13.00
2017-10-10T01:54:50.972Z,12.97
2017-10-10T01:54:51.545Z,13.04
2017-10-10T01:54:52.144Z,13.07
2017-10-10T01:54:52.744Z,12.99
2017-10-10T01:54:53.344Z,12.96
2017-10-10T01:54:53.946Z,13.06
2017-10-10T01:54:54.543Z,13.06
2017-10-10T01:54:55.144Z,13.00
2017-10-10T01:55:49.646Z,12.96
2017-10-10T01:55:50.219Z,12.99
2017-10-10T01:55:50.822Z,13.00
2017-10-10T01:55:51.420Z,12.99
2017-10-10T01:55:52.019Z,13.03
2017-10-10T01:55:52.622Z,12.99
2017-10-10T01:55:53.220Z,13.02
2017-10-10T01:55:53.818Z,13.02
2017-10-10T01:56:48.322Z,13.00
2017-10-10T01:56:48.895Z,13.03
2017-10-10T01:56:49.495Z,13.03
2017-10-10T01:56:50.094Z,13.02
2017-10-10T01:56:50.695Z,13.07
2017-10-10T01:56:51.297Z,13.06
2017-10-10T01:56:51.895Z,13.06
2017-10-10T01:56:52.495Z,13.04
2017-10-10T01:57:45.972Z,13.04
2017-10-10T01:57:46.550Z,13.07
2017-10-10T01:57:47.148Z,13.14
2017-10-10T01:57:47.750Z,13.11
2017-10-10T01:57:48.349Z,13.07
2017-10-10T01:57:48.949Z,13.07
2017-10-10T01:57:49.548Z,13.04
2017-10-10T01:57:50.148Z,13.04
2017-10-10T01:58:43.625Z,13.06
2017-10-10T01:58:44.201Z,13.07
2017-10-10T01:58:44.800Z,13.02
2017-10-10T01:58:45.399Z,13.03
2017-10-10T01:58:46.000Z,13.11
2017-10-10T01:58:46.600Z,13.12
2017-10-10T01:58:47.198Z,13.06
2017-10-10T01:58:47.800Z,13.07
2017-10-10T01:59:41.279Z,13.03
2017-10-10T01:59:41.853Z,13.14
2017-10-10T01:59:42.452Z,13.07
2017-10-10T01:59:43.052Z,13.04
2017-10-10T01:59:43.651Z,13.04
2017-10-10T01:59:44.253Z,13.09
2017-10-10T01:59:44.855Z,13.09
2017-10-10T01:59:45.450Z,13.07
2017-10-10T02:00:38.927Z,13.15
2017-10-10T02:00:39.503Z,13.06
2017-10-10T02:00:40.102Z,13.12
2017-10-10T02:00:40.703Z,13.09
2017-10-10T02:00:41.302Z,13.06
2017-10-10T02:00:41.903Z,13.06
2017-10-10T02:00:42.504Z,13.07
2017-10-10T02:00:43.102Z,13.18
2017-10-10T02:01:36.582Z,13.09
2017-10-10T02:01:37.154Z,13.12
2017-10-10T02:01:37.754Z,13.11
2017-10-10T02:01:38.355Z,13.07
2017-10-10T02:01:38.954Z,13.06
2017-10-10T02:01:39.554Z,13.12
2017-10-10T02:01:40.155Z,13.12
2017-10-10T02:01:40.754Z,13.17
2017-10-10T02:02:34.232Z,13.12
2017-10-10T02:02:34.806Z,13.24
2017-10-10T02:02:35.406Z,13.17
2017-10-10T02:02:36.007Z,13.20
2017-10-10T02:02:36.606Z,13.22
2017-10-10T02:02:37.207Z,13.17
2017-10-10T02:02:37.808Z,13.14
2017-10-10T02:02:38.406Z,13.12
2017-10-10T02:03:31.885Z,13.15
2017-10-10T02:03:32.459Z,13.11
2017-10-10T02:03:33.059Z,13.17
2017-10-10T02:03:33.658Z,13.17
2017-10-10T02:03:34.258Z,13.11
2017-10-10T02:03:34.859Z,13.15
2017-10-10T02:03:35.458Z,13.12
2017-10-10T02:03:36.057Z,13.14
2017-10-10T02:04:29.536Z,13.21
2017-10-10T02:04:30.108Z,13.25
2017-10-10T02:04:30.709Z,13.12
2017-10-10T02:04:31.312Z,13.15
2017-10-10T02:04:31.908Z,13.24
2017-10-10T02:04:32.510Z,13.24
2017-10-10T02:04:33.108Z,13.14
2017-10-10T02:04:33.708Z,13.21
2017-10-10T02:05:27.188Z,13.21
2017-10-10T02:05:27.761Z,13.25
2017-10-10T02:05:28.361Z,13.27
2017-10-10T02:05:28.961Z,13.24
2017-10-10T02:05:29.566Z,13.20
2017-10-10T02:05:30.166Z,13.22
2017-10-10T02:05:30.761Z,13.21
2017-10-10T02:05:31.361Z,13.18
2017-10-10T02:06:24.838Z,13.21
2017-10-10T02:06:25.413Z,13.22
2017-10-10T02:06:26.021Z,13.21
2017-10-10T02:06:26.613Z,13.30
2017-10-10T02:06:27.212Z,13.21
2017-10-10T02:06:27.822Z,13.22
2017-10-10T02:06:28.414Z,13.22
2017-10-10T02:06:29.013Z,13.20
2017-10-10T02:07:22.489Z,13.27
2017-10-10T02:07:23.064Z,13.25
2017-10-10T02:07:23.666Z,13.24
2017-10-10T02:07:24.265Z,13.24
2017-10-10T02:07:24.865Z,13.21
2017-10-10T02:07:25.463Z,13.22
2017-10-10T02:07:26.064Z,13.24
2017-10-10T02:07:26.663Z,13.20
2017-10-10T02:08:20.142Z,13.22
2017-10-10T02:08:20.721Z,13.27
2017-10-10T02:08:21.316Z,13.22
2017-10-10T02:08:21.916Z,13.29
2017-10-10T02:08:22.516Z,13.30
2017-10-10T02:08:23.116Z,13.27
2017-10-10T02:08:23.717Z,13.27
2017-10-10T02:08:24.316Z,13.29
2017-10-10T02:09:17.793Z,13.24
2017-10-10T02:09:18.368Z,13.30
2017-10-10T02:09:18.966Z,13.32
2017-10-10T02:09:19.572Z,13.32
2017-10-10T02:09:20.167Z,13.29
2017-10-10T02:09:20.768Z,13.29
2017-10-10T02:09:21.368Z,13.29
2017-10-10T02:09:21.967Z,13.29
2017-10-10T02:10:16.470Z,13.33
2017-10-10T02:10:17.043Z,13.27
2017-10-10T02:10:17.644Z,13.30
2017-10-10T02:10:18.242Z,13.33
2017-10-10T02:10:18.841Z,13.29
2017-10-10T02:10:19.442Z,13.27
2017-10-10T02:10:20.046Z,13.25
2017-10-10T02:10:20.642Z,13.32
2017-10-10T02:11:14.120Z,13.33
2017-10-10T02:11:14.698Z,13.38
2017-10-10T02:11:15.295Z,13.24
2017-10-10T02:11:15.900Z,13.33
2017-10-10T02:11:16.495Z,13.33
2017-10-10T02:11:17.096Z,13.37
2017-10-10T02:11:17.695Z,13.30
2017-10-10T02:11:18.295Z,13.36
2017-10-10T02:12:11.772Z,13.27
2017-10-10T02:12:12.356Z,13.33
2017-10-10T02:12:12.947Z,13.32
2017-10-10T02:12:13.550Z,13.38
2017-10-10T02:12:14.148Z,13.32
2017-10-10T02:12:14.748Z,13.32
2017-10-10T02:12:15.347Z,13.33
2017-10-10T02:12:15.947Z,13.32
2017-10-10T02:13:10.450Z,13.33
2017-10-10T02:13:11.022Z,13.37
2017-10-10T02:13:11.622Z,13.36
2017-10-10T02:13:12.221Z,13.37
2017-10-10T02:13:12.820Z,13.36
2017-10-10T02:13:13.423Z,13.40
2017-10-10T02:13:14.022Z,13.38
2017-10-10T02:13:14.621Z,13.38
2017-10-10T02:14:08.100Z,13.37
2017-10-10T02:14:08.675Z,13.38
2017-10-10T02:14:09.275Z,13.40
2017-10-10T02:14:09.875Z,13.43
2017-10-10T02:14:10.473Z,13.36
2017-10-10T02:14:11.075Z,13.33
2017-10-10T02:14:11.676Z,13.22
2017-10-10T02:14:12.274Z,13.32
2017-10-10T02:15:06.265Z,13.36
2017-10-10T02:15:06.845Z,13.38
2017-10-10T02:15:07.436Z,13.40
2017-10-10T02:15:08.038Z,13.40
2017-10-10T02:15:08.641Z,13.29
2017-10-10T02:15:09.238Z,13.36
2017-10-10T02:15:09.837Z,13.32
2017-10-10T02:16:04.324Z,13.38
2017-10-10T02:16:04.904Z,13.46
2017-10-10T02:16:05.499Z,13.41
2017-10-10T02:16:06.099Z,13.36
2017-10-10T02:16:06.697Z,13.41
2017-10-10T02:16:07.301Z,13.46
2017-10-10T02:16:07.905Z,13.41
2017-10-10T02:16:08.498Z,13.41
2017-10-10T02:17:01.977Z,13.44
2017-10-10T02:17:02.552Z,13.43
2017-10-10T02:17:03.153Z,13.33
2017-10-10T02:17:03.752Z,13.37
2017-10-10T02:17:04.353Z,13.33
2017-10-10T02:17:04.952Z,13.40
2017-10-10T02:17:05.551Z,13.44
2017-10-10T02:17:06.152Z,13.41
2017-10-10T02:17:59.627Z,13.43
2017-10-10T02:18:00.207Z,13.41
2017-10-10T02:18:00.802Z,13.46
2017-10-10T02:18:01.402Z,13.37
2017-10-10T02:18:02.004Z,13.40
2017-10-10T02:18:02.602Z,13.49
2017-10-10T02:18:03.202Z,13.49
2017-10-10T02:18:03.801Z,13.38
2017-10-10T02:18:57.279Z,13.43
2017-10-10T02:18:57.854Z,13.40
2017-10-10T02:18:58.454Z,13.40
2017-10-10T02:18:59.053Z,13.52
2017-10-10T02:18:59.655Z,13.49
2017-10-10T02:19:00.256Z,13.49
2017-10-10T02:19:00.853Z,13.47
2017-10-10T02:19:01.453Z,13.44
2017-10-10T02:19:55.956Z,13.38
2017-10-10T02:19:56.529Z,13.47
2017-10-10T02:19:57.133Z,13.38
2017-10-10T02:19:57.734Z,13.56
2017-10-10T02:19:58.327Z,13.49
2017-10-10T02:19:58.927Z,13.38
2017-10-10T02:19:59.529Z,13.40
2017-10-10T02:20:00.127Z,13.41
2017-10-10T02:20:54.640Z,13.46
2017-10-10T02:20:55.205Z,13.49
2017-10-10T02:20:55.804Z,13.40
2017-10-10T02:20:56.405Z,13.52
2017-10-10T02:20:57.005Z,13.47
2017-10-10T02:20:57.605Z,13.44
2017-10-10T02:20:58.205Z,13.40
2017-10-10T02:20:58.804Z,13.41
2017-10-10T02:21:52.284Z,13.51
2017-10-10T02:21:52.858Z,13.40
2017-10-10T02:21:53.458Z,13.44
2017-10-10T02:21:54.058Z,13.55
2017-10-10T02:21:54.656Z,13.51
2017-10-10T02:21:55.257Z,13.49
2017-10-10T02:21:55.857Z,13.43
2017-10-10T02:21:56.458Z,13.43
2017-10-10T02:22:49.934Z,13.46
2017-10-10T02:22:50.509Z,13.47
2017-10-10T02:22:51.109Z,13.61
2017-10-10T02:22:51.709Z,13.51
2017-10-10T02:22:52.310Z,13.52
2017-10-10T02:22:52.909Z,13.51
2017-10-10T02:22:53.510Z,13.54
2017-10-10T02:22:54.109Z,13.47
2017-10-10T02:23:47.586Z,13.54
2017-10-10T02:23:48.161Z,13.51
2017-10-10T02:23:48.760Z,13.56
2017-10-10T02:23:49.361Z,13.54
2017-10-10T02:23:49.963Z,13.49
2017-10-10T02:23:50.560Z,13.56
2017-10-10T02:23:51.161Z,13.51
2017-10-10T02:23:51.760Z,13.51
2017-10-10T02:24:45.237Z,13.56
2017-10-10T02:24:45.813Z,13.65
2017-10-10T02:24:46.412Z,13.61
2017-10-10T02:24:47.012Z,13.58
2017-10-10T02:24:47.613Z,13.52
2017-10-10T02:24:48.212Z,13.61
2017-10-10T02:24:48.812Z,13.62
2017-10-10T02:24:49.412Z,13.62
2017-10-10T02:25:42.899Z,13.63
2017-10-10T02:25:43.464Z,13.69
2017-10-10T02:25:44.065Z,13.62
2017-10-10T02:25:44.665Z,13.62
2017-10-10T02:25:45.264Z,13.62
2017-10-10T02:25:45.864Z,13.71
2017-10-10T02:25:46.471Z,13.71
2017-10-10T02:25:47.064Z,13.67
2017-10-10T02:26:41.567Z,13.63
2017-10-10T02:26:42.138Z,13.70
2017-10-10T02:26:42.741Z,13.67
2017-10-10T02:26:43.338Z,13.69
2017-10-10T02:26:43.941Z,13.70
2017-10-10T02:26:44.540Z,13.73
2017-10-10T02:26:45.137Z,13.65
2017-10-10T02:26:45.738Z,13.62
2017-10-10T02:27:40.241Z,13.73
2017-10-10T02:27:40.819Z,13.62
2017-10-10T02:27:41.416Z,13.67
2017-10-10T02:27:42.014Z,13.65
2017-10-10T02:27:42.613Z,13.62
2017-10-10T02:27:43.212Z,13.69
2017-10-10T02:27:43.814Z,13.70
2017-10-10T02:27:44.413Z,13.62
2017-10-10T02:28:38.917Z,13.67
2017-10-10T02:28:39.491Z,13.62
2017-10-10T02:28:40.092Z,13.71
2017-10-10T02:28:40.690Z,13.70
2017-10-10T02:28:41.290Z,13.71
2017-10-10T02:28:41.891Z,13.71
2017-10-10T02:28:42.491Z,13.69
2017-10-10T02:28:43.090Z,13.62
2017-10-10T02:29:36.568Z,13.77
2017-10-10T02:29:37.142Z,13.74
2017-10-10T02:29:37.744Z,13.73
2017-10-10T02:29:38.341Z,13.76
2017-10-10T02:29:38.941Z,13.74
2017-10-10T02:29:39.542Z,13.76
2017-10-10T02:29:40.140Z,13.73
2017-10-10T02:29:40.741Z,13.71
2017-10-10T02:30:34.219Z,13.70
2017-10-10T02:30:34.793Z,13.73
2017-10-10T02:30:35.395Z,13.74
2017-10-10T02:30:35.994Z,13.70
2017-10-10T02:30:36.593Z,13.74
2017-10-10T02:30:37.194Z,13.79
2017-10-10T02:30:37.794Z,13.71
2017-10-10T02:30:38.393Z,13.71
2017-10-10T02:31:32.896Z,13.76
2017-10-10T02:31:33.470Z,13.74
2017-10-10T02:31:34.069Z,13.76
2017-10-10T02:31:34.669Z,13.70
2017-10-10T02:31:35.270Z,13.73
2017-10-10T02:31:35.869Z,13.73
2017-10-10T02:31:36.468Z,13.76
2017-10-10T02:31:37.069Z,13.80
2017-10-10T02:32:32.085Z,13.76
2017-10-10T02:32:32.657Z,13.81
2017-10-10T02:32:33.257Z,13.79
2017-10-10T02:32:33.856Z,13.81
2017-10-10T02:32:34.459Z,13.80
2017-10-10T02:32:35.060Z,13.81
2017-10-10T02:32:35.657Z,13.81
2017-10-10T02:33:30.142Z,13.70
2017-10-10T02:33:30.718Z,13.76
2017-10-10T02:33:31.317Z,13.79
2017-10-10T02:33:31.918Z,13.79
2017-10-10T02:33:32.516Z,13.74
2017-10-10T02:33:33.117Z,13.70
2017-10-10T02:33:33.717Z,13.74
2017-10-10T02:33:34.318Z,13.76
2017-10-10T02:34:27.795Z,13.77
2017-10-10T02:34:28.371Z,13.81
2017-10-10T02:34:28.970Z,13.80
2017-10-10T02:34:29.571Z,13.77
2017-10-10T02:34:30.179Z,13.76
2017-10-10T02:34:30.770Z,13.83
2017-10-10T02:34:31.371Z,13.77
2017-10-10T02:34:31.970Z,13.83
2017-10-10T02:52:15.939Z,13.65
2017-10-10T02:52:16.508Z,13.69
2017-10-10T02:52:17.107Z,13.77
2017-10-10T02:52:17.708Z,13.73
2017-10-10T02:52:18.307Z,13.77
2017-10-10T02:52:18.909Z,13.67
2017-10-10T02:52:19.510Z,13.77
2017-10-10T02:52:20.116Z,13.74
2017-10-10T02:53:13.587Z,13.62
2017-10-10T02:53:14.160Z,13.63
2017-10-10T02:53:14.761Z,13.59
2017-10-10T02:53:15.359Z,13.69
2017-10-10T02:53:15.960Z,13.73
2017-10-10T02:53:16.559Z,13.73
2017-10-10T02:53:17.159Z,13.63
2017-10-10T02:53:17.767Z,13.69
2017-10-10T02:54:11.238Z,13.58
2017-10-10T02:54:11.816Z,13.63
2017-10-10T02:54:12.411Z,13.65
2017-10-10T02:54:13.012Z,13.67
2017-10-10T02:54:13.610Z,13.69
2017-10-10T02:54:14.218Z,13.69
2017-10-10T02:54:14.816Z,13.62
2017-10-10T02:54:15.411Z,13.67
2017-10-10T02:55:08.892Z,13.65
2017-10-10T02:55:09.464Z,13.65
2017-10-10T02:55:10.068Z,13.63
2017-10-10T02:55:10.665Z,13.62
2017-10-10T02:55:11.264Z,13.61
2017-10-10T02:55:11.865Z,13.61
2017-10-10T02:55:12.463Z,13.63
2017-10-10T02:55:13.063Z,13.59
2017-10-10T02:56:06.543Z,13.59
2017-10-10T02:56:07.116Z,13.58
2017-10-10T02:56:07.718Z,13.58
2017-10-10T02:56:08.326Z,13.63
2017-10-10T02:56:08.916Z,13.63
2017-10-10T02:56:09.521Z,13.58
2017-10-10T02:56:10.118Z,13.54
2017-10-10T02:56:10.741Z,13.65
2017-10-10T02:57:05.219Z,13.56
2017-10-10T02:57:05.793Z,13.69
2017-10-10T02:57:06.392Z,13.63
2017-10-10T02:57:06.991Z,13.69
2017-10-10T02:57:07.594Z,13.62
2017-10-10T02:57:08.192Z,13.63
2017-10-10T02:57:08.794Z,13.56
2017-10-10T02:57:09.390Z,13.54
2017-10-10T02:58:03.893Z,13.55
2017-10-10T02:58:04.468Z,13.54
2017-10-10T02:58:05.070Z,13.47
2017-10-10T02:58:05.669Z,13.59
2017-10-10T02:58:06.268Z,13.62
2017-10-10T02:58:06.868Z,13.69
2017-10-10T02:58:07.467Z,13.58
2017-10-10T02:58:08.067Z,13.55
2017-10-10T02:59:02.570Z,13.54
2017-10-10T02:59:03.143Z,13.59
2017-10-10T02:59:03.743Z,13.55
2017-10-10T02:59:04.343Z,13.56
2017-10-10T02:59:04.943Z,13.55
2017-10-10T02:59:05.543Z,13.52
2017-10-10T02:59:06.141Z,13.54
2017-10-10T02:59:06.742Z,13.47
2017-10-10T03:00:00.226Z,13.54
2017-10-10T03:00:00.797Z,13.58
2017-10-10T03:00:01.397Z,13.54
2017-10-10T03:00:01.998Z,13.54
2017-10-10T03:00:02.597Z,13.52
2017-10-10T03:00:03.202Z,13.56
2017-10-10T03:00:03.795Z,13.59
2017-10-10T03:00:04.397Z,13.54
2017-10-10T03:00:58.900Z,13.55
2017-10-10T03:00:59.471Z,13.55
2017-10-10T03:01:00.072Z,13.54
2017-10-10T03:01:00.671Z,13.62
2017-10-10T03:01:01.271Z,13.61
2017-10-10T03:01:01.870Z,13.56
2017-10-10T03:01:02.471Z,13.55
2017-10-10T03:01:03.080Z,13.58
2017-10-10T03:01:57.575Z,13.55
2017-10-10T03:01:58.146Z,13.65
2017-10-10T03:01:58.747Z,13.62
2017-10-10T03:01:59.348Z,13.62
2017-10-10T03:01:59.947Z,13.65
2017-10-10T03:02:00.548Z,13.61
2017-10-10T03:02:01.149Z,13.56
2017-10-10T03:02:01.746Z,13.55
2017-10-10T03:02:56.248Z,13.65
2017-10-10T03:02:56.823Z,13.63
2017-10-10T03:02:57.421Z,13.59
2017-10-10T03:02:58.023Z,13.59
2017-10-10T03:02:58.622Z,13.67
2017-10-10T03:02:59.223Z,13.58
2017-10-10T03:02:59.822Z,13.59
2017-10-10T03:03:00.429Z,13.62
2017-10-10T03:03:54.925Z,13.61
2017-10-10T03:03:55.498Z,13.63
2017-10-10T03:03:56.098Z,13.58
2017-10-10T03:03:56.698Z,13.65
2017-10-10T03:03:57.299Z,13.69
2017-10-10T03:03:57.898Z,13.58
2017-10-10T03:03:58.497Z,13.63
2017-10-10T03:03:59.101Z,13.65
2017-10-10T03:04:52.577Z,13.65
2017-10-10T03:04:53.154Z,13.69
2017-10-10T03:04:53.751Z,13.63
2017-10-10T03:04:54.352Z,13.69
2017-10-10T03:04:54.951Z,13.65
2017-10-10T03:04:55.550Z,13.63
2017-10-10T03:04:56.150Z,13.63
2017-10-10T03:04:56.751Z,13.70
2017-10-10T03:05:50.229Z,13.73
2017-10-10T03:05:50.805Z,13.73
2017-10-10T03:05:51.404Z,13.67
2017-10-10T03:05:52.002Z,13.67
2017-10-10T03:05:52.601Z,13.67
2017-10-10T03:05:53.204Z,13.65
2017-10-10T03:05:53.802Z,13.70
2017-10-10T03:05:54.400Z,13.59
2017-10-10T03:06:48.905Z,13.67
2017-10-10T03:06:49.479Z,13.62
2017-10-10T03:06:50.078Z,13.61
2017-10-10T03:06:50.677Z,13.76
2017-10-10T03:06:51.277Z,13.70
2017-10-10T03:06:51.878Z,13.70
2017-10-10T03:06:52.484Z,13.73
2017-10-10T03:06:53.077Z,13.65
2017-10-10T03:07:47.580Z,13.67
2017-10-10T03:07:48.155Z,13.71
2017-10-10T03:07:48.753Z,13.79
2017-10-10T03:07:49.353Z,13.62
2017-10-10T03:07:49.952Z,13.59
2017-10-10T03:07:50.552Z,13.70
2017-10-10T03:07:51.152Z,13.69
2017-10-10T03:07:51.751Z,13.67
2017-10-10T03:08:46.255Z,13.63
2017-10-10T03:08:46.829Z,13.65
2017-10-10T03:08:47.428Z,13.63
2017-10-10T03:08:48.028Z,13.71
2017-10-10T03:08:48.628Z,13.67
2017-10-10T03:08:49.228Z,13.70
2017-10-10T03:08:49.829Z,13.67
2017-10-10T03:08:50.429Z,13.61
2017-10-10T03:09:44.930Z,13.70
2017-10-10T03:09:45.506Z,13.69
2017-10-10T03:09:46.104Z,13.74
2017-10-10T03:09:46.705Z,13.70
2017-10-10T03:09:47.304Z,13.73
2017-10-10T03:09:47.904Z,13.76
2017-10-10T03:09:48.504Z,13.74
2017-10-10T03:09:49.103Z,13.77
2017-10-10T03:10:42.583Z,13.73
2017-10-10T03:10:43.164Z,13.76
2017-10-10T03:10:43.758Z,13.80
2017-10-10T03:10:44.358Z,13.76
2017-10-10T03:10:44.958Z,13.73
2017-10-10T03:10:45.558Z,13.79
2017-10-10T03:10:46.157Z,13.77
2017-10-10T03:10:46.757Z,13.76
2017-10-10T03:11:40.235Z,13.79
2017-10-10T03:11:40.809Z,13.83
2017-10-10T03:11:41.409Z,13.89
2017-10-10T03:11:42.010Z,13.84
2017-10-10T03:11:42.612Z,13.81
2017-10-10T03:11:43.210Z,13.84
2017-10-10T03:11:43.809Z,13.79
2017-10-10T03:11:44.408Z,13.79
2017-10-10T03:12:37.991Z,13.79
2017-10-10T03:12:38.564Z,13.80
2017-10-10T03:12:39.164Z,13.81
2017-10-10T03:12:39.762Z,13.89
2017-10-10T03:12:40.362Z,13.77
2017-10-10T03:12:40.963Z,13.74
2017-10-10T03:12:41.566Z,13.80
2017-10-10T03:12:42.162Z,13.83
2017-10-10T03:13:36.666Z,13.84
2017-10-10T03:13:37.238Z,13.80
2017-10-10T03:13:37.838Z,13.87
2017-10-10T03:13:38.437Z,13.80
2017-10-10T03:13:39.039Z,13.89
2017-10-10T03:13:39.640Z,13.77
2017-10-10T03:13:40.238Z,13.84
2017-10-10T03:13:40.838Z,13.84
2017-10-10T03:14:35.342Z,13.77
2017-10-10T03:14:35.913Z,13.79
2017-10-10T03:14:36.514Z,13.76
2017-10-10T03:14:37.112Z,13.76
2017-10-10T03:14:37.713Z,13.87
2017-10-10T03:14:38.315Z,13.89
2017-10-10T03:14:38.915Z,13.83
2017-10-10T03:14:39.514Z,13.92
2017-10-10T03:15:34.016Z,13.89
2017-10-10T03:15:34.590Z,13.95
2017-10-10T03:15:35.189Z,13.88
2017-10-10T03:15:35.795Z,13.88
2017-10-10T03:15:36.394Z,13.91
2017-10-10T03:15:36.988Z,13.89
2017-10-10T03:15:37.588Z,13.83
2017-10-10T03:15:38.187Z,13.91
2017-10-10T03:16:32.698Z,13.89
2017-10-10T03:16:33.265Z,13.92
2017-10-10T03:16:33.866Z,13.89
2017-10-10T03:16:34.465Z,13.89
2017-10-10T03:16:35.066Z,13.91
2017-10-10T03:16:35.666Z,13.94
2017-10-10T03:16:36.268Z,13.98
2017-10-10T03:16:36.874Z,13.98
2017-10-10T03:17:30.343Z,13.89
2017-10-10T03:17:30.918Z,13.94
2017-10-10T03:17:31.517Z,13.88
2017-10-10T03:17:32.117Z,13.88
2017-10-10T03:17:32.718Z,13.99
2017-10-10T03:17:33.318Z,13.92
2017-10-10T03:17:33.918Z,13.95
2017-10-10T03:17:34.527Z,13.96
2017-10-10T03:18:29.020Z,13.91
2017-10-10T03:18:29.593Z,13.89
2017-10-10T03:18:30.193Z,13.89
2017-10-10T03:18:30.793Z,13.92
2017-10-10T03:18:31.392Z,13.95
2017-10-10T03:18:31.992Z,13.94
2017-10-10T03:18:32.591Z,13.88
2017-10-10T03:18:33.191Z,13.89
2017-10-10T03:19:26.672Z,13.92
2017-10-10T03:19:27.245Z,13.89
2017-10-10T03:19:27.845Z,13.91
2017-10-10T03:19:28.445Z,13.99
2017-10-10T03:19:29.045Z,13.91
2017-10-10T03:19:29.646Z,13.89
2017-10-10T03:19:30.245Z,13.89
2017-10-10T03:19:30.845Z,13.91
2017-10-10T03:20:25.348Z,13.95
2017-10-10T03:20:25.919Z,13.91
2017-10-10T03:20:26.519Z,13.96
2017-10-10T03:20:27.119Z,13.91
2017-10-10T03:20:27.718Z,13.92
2017-10-10T03:20:28.321Z,13.94
2017-10-10T03:20:28.922Z,13.92
2017-10-10T03:20:29.518Z,13.92
2017-10-10T03:21:22.998Z,13.91
2017-10-10T03:21:23.573Z,13.98
2017-10-10T03:21:24.173Z,13.89
2017-10-10T03:21:24.771Z,13.92
2017-10-10T03:21:25.373Z,13.98
2017-10-10T03:21:25.973Z,13.99
2017-10-10T03:21:26.572Z,13.92
2017-10-10T03:21:27.173Z,13.98
2017-10-10T03:22:20.650Z,13.92
2017-10-10T03:22:21.224Z,13.92
2017-10-10T03:22:21.823Z,13.92
2017-10-10T03:22:22.425Z,13.99
2017-10-10T03:22:23.024Z,13.98
2017-10-10T03:22:23.623Z,13.91
2017-10-10T03:22:24.225Z,13.92
2017-10-10T03:22:24.826Z,13.96
2017-10-10T03:23:18.301Z,13.91
2017-10-10T03:23:18.876Z,13.92
2017-10-10T03:23:19.476Z,13.98
2017-10-10T03:23:20.075Z,13.92
2017-10-10T03:23:20.675Z,13.94
2017-10-10T03:23:21.276Z,13.91
2017-10-10T03:23:21.875Z,13.89
2017-10-10T03:23:22.474Z,13.88
2017-10-10T03:24:15.953Z,13.88
2017-10-10T03:24:16.527Z,13.98
2017-10-10T03:24:17.126Z,14.01
2017-10-10T03:24:17.726Z,13.91
2017-10-10T03:24:18.327Z,13.91
2017-10-10T03:24:18.926Z,13.89
2017-10-10T03:24:19.529Z,13.91
2017-10-10T03:24:20.127Z,13.91
2017-10-10T03:25:14.629Z,13.95
2017-10-10T03:25:15.204Z,13.91
2017-10-10T03:25:15.803Z,13.92
2017-10-10T03:25:16.407Z,14.02
2017-10-10T03:25:17.001Z,13.91
2017-10-10T03:25:17.603Z,13.88
2017-10-10T03:25:18.209Z,13.92
2017-10-10T03:25:18.802Z,13.92
2017-10-10T03:26:12.280Z,13.95
2017-10-10T03:26:12.855Z,13.96
2017-10-10T03:26:13.473Z,14.01
2017-10-10T03:26:14.055Z,13.99
2017-10-10T03:26:14.654Z,13.91
2017-10-10T03:26:15.255Z,13.95
2017-10-10T03:26:15.854Z,13.94
2017-10-10T03:26:16.453Z,13.91
2017-10-10T03:27:09.932Z,13.94
2017-10-10T03:27:10.507Z,13.96
2017-10-10T03:27:11.106Z,14.02
2017-10-10T03:27:11.705Z,14.01
2017-10-10T03:27:12.309Z,14.07
2017-10-10T03:27:12.904Z,13.99
2017-10-10T03:27:13.508Z,14.02